Autumn — V7QA6 — position and weather

sailwx.info

Track history (hours):
 
Tides and Currents Weather Stations Pressure Air Temp Water Temp Dewpoint Dewpoint Depression Visibility Wind Speed Wind Dir Waves Ship Positions

Autumn

Last reported at 2016-Jul-01 04:27 UTC. Time now 2016-Jul-01 20:53 UTC.
Position N 51°20' E 002°35'.

Length 129 m; draft 8 m.

Type: Tanker. MMSI: 538003323.

Date/timePositionNaut miles runAvg speedWind from/ knotsBaromVisibWave heightAir tempDewpointWater temp
2016-Jul-01 04:27N 51°20' E 002°35'0 0.0
2016-Jun-30 17:30N 51°20' E 002°35'0 0.0
2016-Jun-30 16:30N 51°20' E 002°35'0 0.0
2016-Jun-30 15:30N 51°20' E 002°35'0 0.1
2016-Jun-30 14:33N 51°20' E 002°35'0 0.2
2016-Jun-30 13:33N 51°20' E 002°35'0 0.0
2016-Jun-30 12:12N 51°20' E 002°35'0 0.0
2016-Jun-30 11:30N 51°20' E 002°35'0 0.0
2016-Jun-30 09:24N 51°20' E 002°35'0 0.1
2016-Jun-30 07:23N 51°20' E 002°35'10 9.5
2016-Jun-30 06:18N 51°19' E 002°18'912.7
2016-Jun-30 05:33N 51°21' E 002°03'1010.3
2016-Jun-30 04:33N 51°31' E 002°06'1413.8
2016-Jun-30 03:33N 51°41' E 002°21'11310.3
2016-Jun-29 16:33N 53°34' E 002°22'1212.3
2016-Jun-29 15:33N 53°43' E 002°07'1312.8
2016-Jun-29 14:33N 53°52' E 001°52'1313.0
2016-Jun-29 13:33N 54°01' E 001°36'4213.4
2016-Jun-29 10:25N 54°30' E 000°44'1213.4
2016-Jun-29 09:33N 54°38' E 000°29'1313.4
2016-Jun-29 08:34N 54°47' E 000°13'1313.3
2016-Jun-29 07:33N 54°56' W 000°04'1313.2
2016-Jun-29 06:32N 55°05' W 000°21'1313.0
2016-Jun-29 05:33N 55°14' W 000°37'1313.0
2016-Jun-29 04:33N 55°23' W 000°53'1412.8
2016-Jun-29 03:29N 55°33' W 001°11'1812.6
2016-Jun-29 02:03N 55°45' W 001°34'612.6
2016-Jun-29 01:33N 55°50' W 001°42'1312.9
2016-Jun-29 00:33N 55°59' W 001°59'1313.0
2016-Jun-28 23:33N 56°03' W 002°20'1414.1
2016-Jun-28 22:34N 56°06' W 002°45'1313.2
2016-Jun-28 21:33N 56°03' W 003°07'12 0.3
2016-Jun-27 01:08N 56°01' W 003°28'5 9.2
2016-Jun-27 00:34N 56°01' W 003°19'8 8.2
2016-Jun-26 23:34N 56°04' W 003°05'1 0.7
2016-Jun-26 22:33N 56°05' W 003°05'0 0.0
2016-Jun-26 21:33N 56°05' W 003°05'0 0.0
2016-Jun-26 20:33N 56°05' W 003°05'0 0.0
2016-Jun-26 19:33N 56°05' W 003°05'0 0.1
2016-Jun-26 18:33N 56°05' W 003°06'0 0.0
2016-Jun-26 17:33N 56°05' W 003°06'0 0.1
2016-Jun-26 16:33N 56°05' W 003°05'0 0.0
2016-Jun-26 15:33N 56°05' W 003°05'0 0.0
2016-Jun-26 14:33N 56°05' W 003°05'0 0.0
2016-Jun-26 13:33N 56°05' W 003°05'0 0.0
2016-Jun-26 12:33N 56°05' W 003°05'0 0.0
2016-Jun-26 11:33N 56°05' W 003°05'0 0.0
2016-Jun-26 10:33N 56°05' W 003°05'0 0.0
2016-Jun-26 09:33N 56°05' W 003°05'0 0.0
2016-Jun-26 08:33N 56°05' W 003°05'0 0.0
2016-Jun-26 07:33N 56°05' W 003°05'0 0.0
2016-Jun-26 06:33N 56°05' W 003°05'0 0.1
2016-Jun-26 05:33N 56°05' W 003°06'0 0.0
2016-Jun-26 04:33N 56°05' W 003°06'0 0.0
2016-Jun-26 03:33N 56°05' W 003°06'0 0.0
2016-Jun-26 02:33N 56°05' W 003°06'0 0.0
2016-Jun-26 01:33N 56°05' W 003°06'0 0.1
2016-Jun-26 00:33N 56°05' W 003°05'0 0.0
2016-Jun-25 23:33N 56°05' W 003°05'0 0.1
2016-Jun-25 22:33N 56°05' W 003°05'0 0.0
2016-Jun-25 21:33N 56°05' W 003°05'4 3.6
2016-Jun-25 20:33N 56°05' W 002°59'1212.4
2016-Jun-25 19:33N 56°06' W 002°37'1312.6
2016-Jun-25 18:33N 56°02' W 002°15'1212.4
2016-Jun-25 17:33N 55°57' W 001°55'1312.8
2016-Jun-25 16:33N 55°48' W 001°39'4013.4
2016-Jun-25 13:33N 55°20' W 000°48'1414.0
2016-Jun-25 12:32N 55°10' W 000°30'1414.0
2016-Jun-25 11:34N 55°01' W 000°12'1413.5
2016-Jun-25 10:33N 54°52' E 000°05'1313.2
2016-Jun-25 09:33N 54°43' E 000°21'1412.9
2016-Jun-25 08:28N 54°33' E 000°39'1112.5
2016-Jun-25 07:33N 54°25' E 000°53'4013.2
2016-Jun-25 04:33N 53°57' E 001°42'1414.3
2016-Jun-25 03:33N 53°47' E 001°60'1414.4
2016-Jun-25 02:33N 53°37' E 002°17'1413.6
2016-Jun-25 01:33N 53°27' E 002°32'1313.0
2016-Jun-25 00:33N 53°16' E 002°43'3912.2
2016-Jun-24 21:23N 52°43' E 003°18'1113.1
2016-Jun-24 20:33N 52°37' E 003°32'1312.9
2016-Jun-24 19:33N 52°31' E 003°51'1212.3
2016-Jun-24 18:33N 52°31' E 004°11'4 4.3
2016-Jun-24 17:31N 52°31' E 004°19'0 0.0
2016-Jun-24 16:31N 52°31' E 004°19'0 0.0
2016-Jun-24 15:31N 52°31' E 004°19'0 0.1
2016-Jun-24 14:31N 52°31' E 004°19'0 0.0
2016-Jun-24 13:31N 52°31' E 004°19'0 0.0
2016-Jun-24 12:31N 52°31' E 004°19'0 0.0
2016-Jun-24 11:31N 52°31' E 004°19'0 0.0
2016-Jun-24 10:31N 52°31' E 004°19'0 0.1
2016-Jun-24 09:31N 52°31' E 004°19'0 0.1
2016-Jun-24 08:31N 52°31' E 004°19'0 0.0
2016-Jun-24 07:28N 52°31' E 004°19'0 0.0
2016-Jun-24 04:28N 52°31' E 004°19'0 0.0
2016-Jun-24 03:28N 52°31' E 004°19'0 0.1
2016-Jun-24 02:31N 52°31' E 004°19'0 0.1
2016-Jun-24 01:28N 52°31' E 004°19'0 0.0
2016-Jun-24 00:31N 52°31' E 004°19'0 0.0
2016-Jun-23 23:31N 52°31' E 004°19'0 0.0
2016-Jun-23 22:31N 52°31' E 004°19'0 0.0
2016-Jun-23 21:31N 52°31' E 004°19'0 0.1
2016-Jun-23 20:28N 52°31' E 004°19'0 0.0
2016-Jun-23 19:31N 52°31' E 004°19'0 0.0
2016-Jun-23 18:31N 52°31' E 004°19'0 0.0
2016-Jun-23 17:31N 52°31' E 004°19'0 0.0
2016-Jun-23 16:31N 52°31' E 004°19'0 0.0
2016-Jun-23 15:31N 52°31' E 004°19'0 0.1
2016-Jun-23 14:31N 52°31' E 004°19'0 0.0
2016-Jun-23 13:31N 52°31' E 004°19'0 0.0
2016-Jun-23 12:31N 52°31' E 004°19'0 0.1
2016-Jun-23 11:31N 52°31' E 004°19'0 0.0
2016-Jun-23 10:31N 52°31' E 004°19'0 0.1
2016-Jun-23 09:25N 52°31' E 004°19'0 0.1
2016-Jun-23 08:31N 52°31' E 004°19'0 0.0
2016-Jun-23 07:31N 52°31' E 004°19'0 0.0
2016-Jun-23 05:31N 52°31' E 004°19'0 0.0
2016-Jun-23 04:31N 52°31' E 004°19'0 0.0
2016-Jun-23 03:31N 52°31' E 004°19'0 0.1
2016-Jun-23 02:31N 52°31' E 004°19'0 0.1
2016-Jun-23 01:28N 52°31' E 004°19'0 0.0
2016-Jun-23 00:31N 52°31' E 004°19'0 0.0
2016-Jun-22 23:28N 52°31' E 004°19'0 0.0
2016-Jun-22 22:31N 52°31' E 004°19'0 0.0
2016-Jun-22 21:31N 52°31' E 004°19'0 0.1
2016-Jun-22 20:28N 52°31' E 004°19'0 0.1
2016-Jun-22 19:31N 52°31' E 004°19'0 0.0
2016-Jun-22 18:31N 52°31' E 004°19'0 0.0
2016-Jun-22 17:31N 52°31' E 004°19'0 0.0
2016-Jun-22 16:31N 52°31' E 004°19'0 0.0
2016-Jun-22 15:31N 52°31' E 004°19'0 0.0
2016-Jun-22 14:31N 52°31' E 004°19'0 0.1
2016-Jun-22 13:31N 52°31' E 004°19'0 0.0
2016-Jun-22 12:31N 52°31' E 004°19'0 0.0
2016-Jun-22 11:31N 52°31' E 004°19'0 0.0
2016-Jun-22 10:31N 52°31' E 004°19'0 0.0
2016-Jun-22 09:31N 52°31' E 004°19'0 0.1
2016-Jun-22 08:31N 52°31' E 004°19'0 0.0
2016-Jun-22 07:31N 52°31' E 004°19'0 0.0
2016-Jun-22 05:31N 52°31' E 004°19'0 0.0
2016-Jun-22 04:31N 52°31' E 004°19'0 0.0
2016-Jun-22 03:28N 52°31' E 004°19'0 0.0
2016-Jun-22 02:28N 52°31' E 004°19'0 0.0
2016-Jun-22 01:28N 52°31' E 004°19'0 0.1
2016-Jun-22 00:31N 52°31' E 004°19'0 0.0
2016-Jun-21 23:33N 52°31' E 004°19'0 0.0
2016-Jun-21 22:33N 52°31' E 004°19'0 0.0
2016-Jun-21 21:33N 52°31' E 004°19'0 0.1
2016-Jun-21 20:33N 52°31' E 004°19'0 0.1
2016-Jun-21 19:33N 52°31' E 004°19'0 0.0
2016-Jun-21 18:33N 52°31' E 004°19'0 0.0
2016-Jun-21 17:33N 52°31' E 004°19'0 0.0
2016-Jun-21 16:31N 52°31' E 004°19'0 0.0
2016-Jun-21 15:31N 52°31' E 004°19'0 0.0
2016-Jun-21 14:31N 52°31' E 004°19'0 0.0
2016-Jun-21 13:31N 52°31' E 004°19'0 0.1
2016-Jun-21 12:31N 52°31' E 004°19'0 0.0
2016-Jun-21 11:31N 52°31' E 004°19'0 0.0
2016-Jun-21 10:31N 52°31' E 004°19'0 0.0
2016-Jun-21 09:31N 52°31' E 004°19'0 0.1
2016-Jun-21 08:31N 52°31' E 004°19'0 0.0
2016-Jun-21 07:31N 52°31' E 004°19'0 0.0
2016-Jun-21 04:31N 52°31' E 004°19'  
Track history (hours):
 
Tides and Currents Weather Stations Pressure Air Temp Water Temp Dewpoint Dewpoint Depression Visibility Wind Speed Wind Dir Waves Ship Positions

Autumn

Last reported at 2016-Jul-01 04:27 UTC. Time now 2016-Jul-01 20:53 UTC.
Position N 51°20' E 002°35'.

Length 129 m; draft 8 m.

Type: Tanker. MMSI: 538003323.

Date/timePositionNaut miles runAvg speedWind from/ knotsBaromVisibWave heightAir tempDewpointWater temp
2016-Jul-01 04:27N 51°20' E 002°35'0 0.0
2016-Jun-30 17:30N 51°20' E 002°35'0 0.0
2016-Jun-30 16:30N 51°20' E 002°35'0 0.0
2016-Jun-30 15:30N 51°20' E 002°35'0 0.1
2016-Jun-30 14:33N 51°20' E 002°35'0 0.2
2016-Jun-30 13:33N 51°20' E 002°35'0 0.0
2016-Jun-30 12:12N 51°20' E 002°35'0 0.0
2016-Jun-30 11:30N 51°20' E 002°35'0 0.0
2016-Jun-30 09:24N 51°20' E 002°35'0 0.1
2016-Jun-30 07:23N 51°20' E 002°35'10 9.5
2016-Jun-30 06:18N 51°19' E 002°18'912.7
2016-Jun-30 05:33N 51°21' E 002°03'1010.3
2016-Jun-30 04:33N 51°31' E 002°06'1413.8
2016-Jun-30 03:33N 51°41' E 002°21'11310.3
2016-Jun-29 16:33N 53°34' E 002°22'1212.3
2016-Jun-29 15:33N 53°43' E 002°07'1312.8
2016-Jun-29 14:33N 53°52' E 001°52'1313.0
2016-Jun-29 13:33N 54°01' E 001°36'4213.4
2016-Jun-29 10:25N 54°30' E 000°44'1213.4
2016-Jun-29 09:33N 54°38' E 000°29'1313.4
2016-Jun-29 08:34N 54°47' E 000°13'1313.3
2016-Jun-29 07:33N 54°56' W 000°04'1313.2
2016-Jun-29 06:32N 55°05' W 000°21'1313.0
2016-Jun-29 05:33N 55°14' W 000°37'1313.0
2016-Jun-29 04:33N 55°23' W 000°53'1412.8
2016-Jun-29 03:29N 55°33' W 001°11'1812.6
2016-Jun-29 02:03N 55°45' W 001°34'612.6
2016-Jun-29 01:33N 55°50' W 001°42'1312.9
2016-Jun-29 00:33N 55°59' W 001°59'1313.0
2016-Jun-28 23:33N 56°03' W 002°20'1414.1
2016-Jun-28 22:34N 56°06' W 002°45'1313.2
2016-Jun-28 21:33N 56°03' W 003°07'12 0.3
2016-Jun-27 01:08N 56°01' W 003°28'5 9.2
2016-Jun-27 00:34N 56°01' W 003°19'8 8.2
2016-Jun-26 23:34N 56°04' W 003°05'1 0.7
2016-Jun-26 22:33N 56°05' W 003°05'0 0.0
2016-Jun-26 21:33N 56°05' W 003°05'0 0.0
2016-Jun-26 20:33N 56°05' W 003°05'0 0.0
2016-Jun-26 19:33N 56°05' W 003°05'0 0.1
2016-Jun-26 18:33N 56°05' W 003°06'0 0.0
2016-Jun-26 17:33N 56°05' W 003°06'0 0.1
2016-Jun-26 16:33N 56°05' W 003°05'0 0.0
2016-Jun-26 15:33N 56°05' W 003°05'0 0.0
2016-Jun-26 14:33N 56°05' W 003°05'0 0.0
2016-Jun-26 13:33N 56°05' W 003°05'0 0.0
2016-Jun-26 12:33N 56°05' W 003°05'0 0.0
2016-Jun-26 11:33N 56°05' W 003°05'0 0.0
2016-Jun-26 10:33N 56°05' W 003°05'0 0.0
2016-Jun-26 09:33N 56°05' W 003°05'0 0.0
2016-Jun-26 08:33N 56°05' W 003°05'0 0.0
2016-Jun-26 07:33N 56°05' W 003°05'0 0.0
2016-Jun-26 06:33N 56°05' W 003°05'0 0.1
2016-Jun-26 05:33N 56°05' W 003°06'0 0.0
2016-Jun-26 04:33N 56°05' W 003°06'0 0.0
2016-Jun-26 03:33N 56°05' W 003°06'0 0.0
2016-Jun-26 02:33N 56°05' W 003°06'0 0.0
2016-Jun-26 01:33N 56°05' W 003°06'0 0.1
2016-Jun-26 00:33N 56°05' W 003°05'0 0.0
2016-Jun-25 23:33N 56°05' W 003°05'0 0.1
2016-Jun-25 22:33N 56°05' W 003°05'0 0.0
2016-Jun-25 21:33N 56°05' W 003°05'4 3.6
2016-Jun-25 20:33N 56°05' W 002°59'1212.4
2016-Jun-25 19:33N 56°06' W 002°37'1312.6
2016-Jun-25 18:33N 56°02' W 002°15'1212.4
2016-Jun-25 17:33N 55°57' W 001°55'1312.8
2016-Jun-25 16:33N 55°48' W 001°39'4013.4
2016-Jun-25 13:33N 55°20' W 000°48'1414.0
2016-Jun-25 12:32N 55°10' W 000°30'1414.0
2016-Jun-25 11:34N 55°01' W 000°12'1413.5
2016-Jun-25 10:33N 54°52' E 000°05'1313.2
2016-Jun-25 09:33N 54°43' E 000°21'1412.9
2016-Jun-25 08:28N 54°33' E 000°39'1112.5
2016-Jun-25 07:33N 54°25' E 000°53'4013.2
2016-Jun-25 04:33N 53°57' E 001°42'1414.3
2016-Jun-25 03:33N 53°47' E 001°60'1414.4
2016-Jun-25 02:33N 53°37' E 002°17'1413.6
2016-Jun-25 01:33N 53°27' E 002°32'1313.0
2016-Jun-25 00:33N 53°16' E 002°43'3912.2
2016-Jun-24 21:23N 52°43' E 003°18'1113.1
2016-Jun-24 20:33N 52°37' E 003°32'1312.9
2016-Jun-24 19:33N 52°31' E 003°51'1212.3
2016-Jun-24 18:33N 52°31' E 004°11'4 4.3
2016-Jun-24 17:31N 52°31' E 004°19'0 0.0
2016-Jun-24 16:31N 52°31' E 004°19'0 0.0
2016-Jun-24 15:31N 52°31' E 004°19'0 0.1
2016-Jun-24 14:31N 52°31' E 004°19'0 0.0
2016-Jun-24 13:31N 52°31' E 004°19'0 0.0
2016-Jun-24 12:31N 52°31' E 004°19'0 0.0
2016-Jun-24 11:31N 52°31' E 004°19'0 0.0
2016-Jun-24 10:31N 52°31' E 004°19'0 0.1
2016-Jun-24 09:31N 52°31' E 004°19'0 0.1
2016-Jun-24 08:31N 52°31' E 004°19'0 0.0
2016-Jun-24 07:28N 52°31' E 004°19'0 0.0
2016-Jun-24 04:28N 52°31' E 004°19'0 0.0
2016-Jun-24 03:28N 52°31' E 004°19'0 0.1
2016-Jun-24 02:31N 52°31' E 004°19'0 0.1
2016-Jun-24 01:28N 52°31' E 004°19'0 0.0
2016-Jun-24 00:31N 52°31' E 004°19'0 0.0
2016-Jun-23 23:31N 52°31' E 004°19'0 0.0
2016-Jun-23 22:31N 52°31' E 004°19'0 0.0
2016-Jun-23 21:31N 52°31' E 004°19'0 0.1
2016-Jun-23 20:28N 52°31' E 004°19'0 0.0
2016-Jun-23 19:31N 52°31' E 004°19'0 0.0
2016-Jun-23 18:31N 52°31' E 004°19'0 0.0
2016-Jun-23 17:31N 52°31' E 004°19'0 0.0
2016-Jun-23 16:31N 52°31' E 004°19'0 0.0
2016-Jun-23 15:31N 52°31' E 004°19'0 0.1
2016-Jun-23 14:31N 52°31' E 004°19'0 0.0
2016-Jun-23 13:31N 52°31' E 004°19'0 0.0
2016-Jun-23 12:31N 52°31' E 004°19'0 0.1
2016-Jun-23 11:31N 52°31' E 004°19'0 0.0
2016-Jun-23 10:31N 52°31' E 004°19'0 0.1
2016-Jun-23 09:25N 52°31' E 004°19'0 0.1
2016-Jun-23 08:31N 52°31' E 004°19'0 0.0
2016-Jun-23 07:31N 52°31' E 004°19'0 0.0
2016-Jun-23 05:31N 52°31' E 004°19'0 0.0
2016-Jun-23 04:31N 52°31' E 004°19'0 0.0
2016-Jun-23 03:31N 52°31' E 004°19'0 0.1
2016-Jun-23 02:31N 52°31' E 004°19'0 0.1
2016-Jun-23 01:28N 52°31' E 004°19'0 0.0
2016-Jun-23 00:31N 52°31' E 004°19'0 0.0
2016-Jun-22 23:28N 52°31' E 004°19'0 0.0
2016-Jun-22 22:31N 52°31' E 004°19'0 0.0
2016-Jun-22 21:31N 52°31' E 004°19'0 0.1
2016-Jun-22 20:28N 52°31' E 004°19'0 0.1
2016-Jun-22 19:31N 52°31' E 004°19'0 0.0
2016-Jun-22 18:31N 52°31' E 004°19'0 0.0
2016-Jun-22 17:31N 52°31' E 004°19'0 0.0
2016-Jun-22 16:31N 52°31' E 004°19'0 0.0
2016-Jun-22 15:31N 52°31' E 004°19'0 0.0
2016-Jun-22 14:31N 52°31' E 004°19'0 0.1
2016-Jun-22 13:31N 52°31' E 004°19'0 0.0
2016-Jun-22 12:31N 52°31' E 004°19'0 0.0
2016-Jun-22 11:31N 52°31' E 004°19'0 0.0
2016-Jun-22 10:31N 52°31' E 004°19'0 0.0
2016-Jun-22 09:31N 52°31' E 004°19'0 0.1
2016-Jun-22 08:31N 52°31' E 004°19'0 0.0
2016-Jun-22 07:31N 52°31' E 004°19'0 0.0
2016-Jun-22 05:31N 52°31' E 004°19'0 0.0
2016-Jun-22 04:31N 52°31' E 004°19'0 0.0
2016-Jun-22 03:28N 52°31' E 004°19'0 0.0
2016-Jun-22 02:28N 52°31' E 004°19'0 0.0
2016-Jun-22 01:28N 52°31' E 004°19'0 0.1
2016-Jun-22 00:31N 52°31' E 004°19'0 0.0
2016-Jun-21 23:33N 52°31' E 004°19'0 0.0
2016-Jun-21 22:33N 52°31' E 004°19'0 0.0
2016-Jun-21 21:33N 52°31' E 004°19'0 0.1
2016-Jun-21 20:33N 52°31' E 004°19'0 0.1
2016-Jun-21 19:33N 52°31' E 004°19'0 0.0
2016-Jun-21 18:33N 52°31' E 004°19'0 0.0
2016-Jun-21 17:33N 52°31' E 004°19'0 0.0
2016-Jun-21 16:31N 52°31' E 004°19'0 0.0
2016-Jun-21 15:31N 52°31' E 004°19'0 0.0
2016-Jun-21 14:31N 52°31' E 004°19'0 0.0
2016-Jun-21 13:31N 52°31' E 004°19'0 0.1
2016-Jun-21 12:31N 52°31' E 004°19'0 0.0
2016-Jun-21 11:31N 52°31' E 004°19'0 0.0
2016-Jun-21 10:31N 52°31' E 004°19'0 0.0
2016-Jun-21 09:31N 52°31' E 004°19'0 0.1
2016-Jun-21 08:31N 52°31' E 004°19'0 0.0
2016-Jun-21 07:31N 52°31' E 004°19'0 0.0
2016-Jun-21 04:31N 52°31' E 004°19'  

Dump ship's entire track history